»·PEaware :: SWA982 KLAS-KSBP

SWA982 :: KLAS-KSBP

FLIGHT INFORMATION

Flight Status: Arrived
Operator:
Southwest Airlines
More flights by this operator :: More flights under this callsign
Pilot: Justin S. (9599)
Aircraft: BOEING 737-200
(B732)
More flights by this aircraft type
Origin: KLAS McCarran Intl
United States
Destination: KSBP San Luis Co Regl
United States
More flights between these airports :: More routes between these airports
Route: +MCCRN5 HEC J6 PMD RZS GVO MQO
File this flight plan on PilotEdge
Remarks:
Altitude:
(Current/Filed)
26,000ft
Speed:
(Current/Filed)
450kts
Departed: 01-Dec-17 10:06 PM
Arrived: 01-Dec-17 11:19 PM
Distance/Time
Traveled:
273nm/1:13
Distance/Time
To Go:
Arrived

Flight Plot

Page will automatically refresh every two minutes.

Flight plan parsing failed; only flown route is shown


Map Options




Map Legend


Flown Route
Filed Route
Departure Airport
Arrival Airport
Navaid (VOR, NDB)
Fix

Horizontal Profiles

Position Reports

Time Latitude Longitude Heading Altitude Ground
Speed
01-Dec-17 21:49 36.080931 -115.146026 254 2120ft 0kts
01-Dec-17 21:50 36.080931 -115.146026 254 2120ft 0kts
01-Dec-17 21:51 36.080931 -115.146026 254 2120ft 0kts
01-Dec-17 21:52 36.080931 -115.146026 254 2120ft 0kts
01-Dec-17 21:53 36.080931 -115.146026 254 2120ft 0kts
01-Dec-17 21:54 36.080931 -115.146026 254 2120ft 0kts
01-Dec-17 21:55 36.080964 -115.145880 254 2120ft 2kts
01-Dec-17 21:56 36.081087 -115.145247 216 2120ft 2kts
01-Dec-17 21:57 36.081036 -115.145074 157 2120ft 0kts
01-Dec-17 21:58 36.081036 -115.145074 157 2120ft 0kts
01-Dec-17 21:59 36.081005 -115.145058 157 2120ft 2kts
01-Dec-17 22:00 36.079181 -115.144887 181 2120ft 0kts
01-Dec-17 22:01 36.079181 -115.144887 181 2120ft 0kts
01-Dec-17 22:02 36.079023 -115.144894 181 2120ft 6kts
01-Dec-17 22:03 36.078235 -115.139243 88 2120ft 20kts
01-Dec-17 22:04 36.078221 -115.132344 87 2120ft 19kts
01-Dec-17 22:05 36.078279 -115.125637 90 2120ft 19kts
01-Dec-17 22:06 36.077599 -115.121635 141 2120ft 0kts
01-Dec-17 22:07 36.077599 -115.121635 141 2120ft 0kts
01-Dec-17 22:08 36.077599 -115.121635 141 2120ft 0kts
01-Dec-17 22:09 36.076387 -115.122205 270 2120ft 0kts
01-Dec-17 22:10 36.076387 -115.122205 270 2120ft 0kts
01-Dec-17 22:11 36.076332 -115.148135 271 2497ft 155kts
01-Dec-17 22:12 36.075545 -115.204997 270 4649ft 181kts
01-Dec-17 22:13 36.058152 -115.275721 216 6244ft 263kts
01-Dec-17 22:14 35.989987 -115.308511 201 8826ft 282kts
01-Dec-17 22:15 35.914015 -115.339532 201 10829ft 298kts
01-Dec-17 22:16 35.837665 -115.367668 201 12719ft 301kts
01-Dec-17 22:17 35.756231 -115.396513 201 14364ft 309kts
01-Dec-17 22:18 35.674215 -115.429137 202 15873ft 315kts
01-Dec-17 22:19 35.601033 -115.467634 219 17141ft 311kts
01-Dec-17 22:20 35.533415 -115.532775 228 18415ft 310kts
01-Dec-17 22:21 35.471091 -115.606039 232 19576ft 312kts
01-Dec-17 22:22 35.423556 -115.665330 232 20406ft 316kts
01-Dec-17 22:23 35.365887 -115.744312 230 21380ft 321kts
01-Dec-17 22:24 35.310012 -115.812144 232 22201ft 323kts
01-Dec-17 22:25 35.250356 -115.887292 232 23020ft 326kts
01-Dec-17 22:26 35.187402 -115.967569 232 23687ft 335kts
01-Dec-17 22:27 35.119598 -116.054319 232 23790ft 371kts
01-Dec-17 22:28 35.046975 -116.146815 232 24636ft 379kts
01-Dec-17 22:29 34.973622 -116.240143 232 25468ft 384kts
01-Dec-17 22:30 34.899978 -116.333669 232 26220ft 387kts
01-Dec-17 22:31 34.838080 -116.410347 231 26752ft 391kts
01-Dec-17 22:32 34.772409 -116.511052 263 27819ft 358kts
01-Dec-17 22:33 34.772551 -116.628550 271 27896ft 347kts
01-Dec-17 22:34 34.767775 -116.717869 268 27903ft 346kts
01-Dec-17 22:35 34.757682 -116.834538 267 27904ft 349kts
01-Dec-17 22:36 34.746110 -116.951425 266 27903ft 351kts
01-Dec-17 22:37 34.736259 -117.046964 266 27902ft 352kts
01-Dec-17 22:38 34.725873 -117.145988 266 27900ft 353kts
01-Dec-17 22:39 34.713294 -117.264125 266 27899ft 353kts
01-Dec-17 22:40 34.700707 -117.380698 266 26431ft 352kts
01-Dec-17 22:41 34.688567 -117.491688 267 25127ft 323kts
01-Dec-17 22:42 34.677134 -117.596629 267 23877ft 296kts
01-Dec-17 22:43 34.668293 -117.675447 265 23916ft 310kts
01-Dec-17 22:44 34.662644 -117.755356 268 23912ft 326kts
01-Dec-17 22:45 34.652599 -117.867175 266 23909ft 345kts
01-Dec-17 22:46 34.640409 -117.981157 266 23909ft 361kts
01-Dec-17 22:47 34.626930 -118.100007 264 23904ft 377kts
01-Dec-17 22:48 34.613605 -118.221158 267 23904ft 386kts
01-Dec-17 22:49 34.604287 -118.349697 269 23902ft 394kts
01-Dec-17 22:50 34.595829 -118.482981 269 23900ft 400kts
01-Dec-17 22:51 34.587432 -118.617756 269 23899ft 404kts
01-Dec-17 22:52 34.580050 -118.729695 268 23906ft 407kts
01-Dec-17 22:53 34.572306 -118.852224 266 23072ft 433kts
01-Dec-17 22:54 34.562548 -119.001005 265 22250ft 445kts
01-Dec-17 22:55 34.552632 -119.150610 265 22136ft 440kts
01-Dec-17 22:56 34.542928 -119.295479 265 22048ft 424kts
01-Dec-17 22:57 34.533312 -119.435970 265 22049ft 411kts
01-Dec-17 22:58 34.523756 -119.571374 264 22049ft 399kts
01-Dec-17 22:59 34.514401 -119.702830 264 22055ft 393kts
01-Dec-17 23:00 34.511448 -119.832537 271 22028ft 366kts
01-Dec-17 23:01 34.518370 -119.945685 274 21329ft 322kts
01-Dec-17 23:02 34.528004 -120.053443 275 19483ft 318kts
01-Dec-17 23:03 34.558372 -120.147944 326 17727ft 321kts
01-Dec-17 23:04 34.635431 -120.198878 326 16117ft 314kts
01-Dec-17 23:05 34.707356 -120.256246 324 14542ft 307kts
01-Dec-17 23:06 34.774080 -120.318434 320 12997ft 300kts
01-Dec-17 23:07 34.839409 -120.379737 321 11488ft 295kts
01-Dec-17 23:08 34.904066 -120.439256 321 10031ft 289kts
01-Dec-17 23:09 34.962407 -120.492609 321 9981ft 235kts
01-Dec-17 23:10 35.010441 -120.536611 320 9178ft 228kts
01-Dec-17 23:11 35.063904 -120.586235 322 7759ft 242kts
01-Dec-17 23:12 35.115757 -120.633429 322 6751ft 241kts
01-Dec-17 23:13 35.165082 -120.679043 321 5823ft 238kts
01-Dec-17 23:14 35.217363 -120.727560 322 4861ft 235kts
01-Dec-17 23:15 35.264800 -120.780207 304 3995ft 227kts
01-Dec-17 23:16 35.299696 -120.841677 304 4001ft 221kts
01-Dec-17 23:17 35.334300 -120.902643 304 4003ft 214kts
01-Dec-17 23:18 35.378434 -120.908872 69 4041ft 199kts
01-Dec-17 23:19 35.369968 -120.841472 140 4024ft 214kts
01-Dec-17 23:20 35.325694 -120.795061 129 3971ft 192kts
01-Dec-17 23:21 35.293432 -120.742602 126 2795ft 197kts
01-Dec-17 23:22 35.267085 -120.693638 123 1525ft 150kts
01-Dec-17 23:23 35.245909 -120.655926 123 357ft 124kts
01-Dec-17 23:24 35.233217 -120.633526 124 189ft 19kts
01-Dec-17 23:25 35.247350 -120.658513 123 407ft 123kts
01-Dec-17 23:26 35.240377 -120.646178 123 207ft 125kts
01-Dec-17 23:27 35.238941 -120.643689 121 191ft 119kts
01-Dec-17 23:28 35.238582 -120.643056 121 190ft 118kts
01-Dec-17 23:29 35.233939 -120.634830 121 189ft 20kts
01-Dec-17 23:30 35.233848 -120.632723 303 189ft 12kts
01-Dec-17 23:31 35.233987 -120.632972 304 189ft 12kts
01-Dec-17 23:32 35.236142 -120.636739 305 189ft 14kts
01-Dec-17 23:33 35.238491 -120.641114 303 189ft 16kts
01-Dec-17 23:34 35.239137 -120.643919 121 189ft 0kts
01-Dec-17 23:35 35.233205 -120.620460 20 615ft 150kts
01-Dec-17 23:36 35.232847 -120.624212 20 1546ft 205kts
01-Dec-17 23:37 35.241376 -120.630965 294 1004ft 227kts
01-Dec-17 23:38 35.233717 -120.645055 167 843ft 194kts

Navigation Log

Ident Type
Flight plan parsing failed, navigation log unavailable